Time;durP1;ratioP1;P1;durP2;ratioP2;P2;SDS_P1;SDS_P2;PMS_P1;PMS_P2;Temp;Humidity;BMP_temperature;BMP_pressure;BME280_temperature;BME280_humidity;BME280_pressure;Samples;Min_cycle;Max_cycle;Signal;HPM_P1;HPM_P2
2021/07/16 00:00:24;;;;;;;;;;;;;;;17.72;53.61;100898.25;5133181;28;19923;-72
2021/07/16 00:02:51;;;;;;;;;;;;;;;17.54;53.57;100900.59;5133677;28;19923;-72
2021/07/16 00:05:18;;;;;;;;;;;;;;;17.51;53.79;100898.22;5133053;28;19923;-72
2021/07/16 00:07:44;;;;;;;;;;;;;;;17.47;54.17;100900.28;5133638;28;19968;-72
2021/07/16 00:10:14;;;;;;;;;;;;;;;17.35;54.77;100902.09;5133264;28;19924;-72
2021/07/16 00:12:40;;;;;;;;;;;;;;;17.36;55.32;100903.75;5133051;28;19924;-72
2021/07/16 00:15:08;;;;;;;;;;;;;;;17.34;56.04;100908.31;5133178;28;20400;-73
2021/07/16 00:17:35;;;;;;;;;;;;;;;17.45;56.09;100917.97;5132841;28;20381;-72
2021/07/16 00:20:01;;;;;;;;;;;;;;;17.56;56.25;100917.91;5133532;28;19923;-72
2021/07/16 00:22:28;;;;;;;;;;;;;;;17.64;56.18;100920.75;5133281;28;19923;-72
2021/07/16 00:24:55;;;;;;;;;;;;;;;17.54;56.46;100925.09;5133425;28;20026;-72
2021/07/16 00:27:23;;;;;;;;;;;;;;;17.44;56.79;100921.53;5132808;28;19923;-72
2021/07/16 00:29:49;;;;;;;;;;;;;;;17.45;55.84;100940.81;5133142;28;19923;-72
2021/07/16 00:32:16;;;;;;;;;;;;;;;17.38;55.56;100948.34;5133178;28;19927;-72
2021/07/16 00:34:43;;;;;;;;;;;;;;;17.33;56.42;100943.47;5133113;28;20100;-72
2021/07/16 00:37:09;;;;;;;;;;;;;;;17.39;54.08;100937.72;5132960;28;20289;-72
2021/07/16 00:39:37;;;;;;;;;;;;;;;17.20;52.93;100940.97;5132991;28;20339;-72
2021/07/16 00:42:04;;;;;;;;;;;;;;;17.19;52.46;100949.00;5133004;28;19931;-72
2021/07/16 00:44:33;;;;;;;;;;;;;;;17.28;51.31;100950.88;5133056;28;19940;-72
2021/07/16 00:47:00;;;;;;;;;;;;;;;17.24;51.78;100953.88;5133299;28;19924;-72
2021/07/16 00:49:28;;;;;;;;;;;;;;;17.15;52.00;100964.16;5132709;28;19934;-72
2021/07/16 00:51:55;;;;;;;;;;;;;;;17.11;51.96;100960.13;5132869;28;19966;-71
2021/07/16 00:54:21;;;;;;;;;;;;;;;17.15;51.54;100965.97;5132617;28;19923;-72
2021/07/16 00:56:48;;;;;;;;;;;;;;;17.10;53.13;100968.97;5133128;28;19950;-72
2021/07/16 00:59:16;;;;;;;;;;;;;;;17.14;53.04;100969.56;5132865;27;19923;-72
2021/07/16 01:01:46;;;;;;;;;;;;;;;17.15;51.30;100974.69;5136660;27;20392;-72
2021/07/16 01:04:13;;;;;;;;;;;;;;;17.10;52.31;100981.28;5136447;27;20395;-72
2021/07/16 01:06:40;;;;;;;;;;;;;;;17.29;50.79;100985.91;5136305;27;20396;-72
2021/07/16 01:09:07;;;;;;;;;;;;;;;17.19;52.18;100984.00;5136820;27;19935;-72
2021/07/16 01:11:34;;;;;;;;;;;;;;;17.18;52.29;100981.50;5136206;27;19929;-72
2021/07/16 01:14:01;;;;;;;;;;;;;;;17.07;53.23;100987.59;5136695;27;19923;-72
2021/07/16 01:16:27;;;;;;;;;;;;;;;17.05;51.66;100983.44;5136216;27;19930;-72
2021/07/16 01:18:55;;;;;;;;;;;;;;;16.95;51.15;100983.31;5136200;27;20375;-72
2021/07/16 01:21:23;;;;;;;;;;;;;;;17.00;51.39;100986.41;5135982;27;20274;-72
2021/07/16 01:23:52;;;;;;;;;;;;;;;17.00;51.24;100986.41;5136496;27;19924;-72
2021/07/16 01:26:18;;;;;;;;;;;;;;;16.87;52.31;100990.97;5135899;27;19924;-72
2021/07/16 01:28:45;;;;;;;;;;;;;;;16.81;51.55;100986.19;5135917;27;19924;-72
2021/07/16 01:31:12;;;;;;;;;;;;;;;16.75;50.72;100996.19;5136319;27;19924;-72
2021/07/16 01:33:39;;;;;;;;;;;;;;;16.72;50.74;100996.44;5136048;27;19923;-72
2021/07/16 01:36:05;;;;;;;;;;;;;;;16.56;52.28;100990.66;5135906;27;20392;-72
2021/07/16 01:38:32;;;;;;;;;;;;;;;16.61;51.66;101000.81;5135919;27;19924;-72
2021/07/16 01:41:00;;;;;;;;;;;;;;;16.63;52.08;101002.38;5135816;27;20185;-71
2021/07/16 01:43:27;;;;;;;;;;;;;;;16.54;53.32;101005.69;5135553;27;19927;-71
2021/07/16 01:45:53;;;;;;;;;;;;;;;16.40;52.97;100996.25;5136019;27;19923;-71
2021/07/16 01:48:20;;;;;;;;;;;;;;;16.49;53.48;100999.94;5135696;27;19923;-71
2021/07/16 01:50:48;;;;;;;;;;;;;;;16.55;52.01;100999.50;5135683;27;19923;-71
2021/07/16 01:53:17;;;;;;;;;;;;;;;16.54;51.44;101001.31;5135408;27;19924;-71
2021/07/16 01:55:44;;;;;;;;;;;;;;;16.49;51.02;101003.44;5135889;27;19930;-71
2021/07/16 01:58:13;;;;;;;;;;;;;;;16.33;50.97;101003.72;5135767;27;19930;-72
2021/07/16 02:00:41;;;;;;;;;;;;;;;16.35;50.53;101005.44;5135129;27;20400;-72
2021/07/16 02:03:08;;;;;;;;;;;;;;;16.38;49.40;101005.19;5135708;27;19928;-71
2021/07/16 02:05:35;;;;;;;;;;;;;;;16.40;51.33;101000.66;5135465;27;19930;-71
2021/07/16 02:08:03;;;;;;;;;;;;;;;16.35;51.60;100990.50;5135526;27;19923;-71
2021/07/16 02:10:30;;;;;;;;;;;;;;;16.34;52.36;100994.09;5135235;27;19923;-72
2021/07/16 02:12:57;;;;;;;;;;;;;;;16.43;51.84;100990.75;5135165;27;19923;-71
2021/07/16 02:15:27;;;;;;;;;;;;;;;16.37;52.62;100988.59;5134934;27;19924;-72
2021/07/16 02:17:54;;;;;;;;;;;;;;;16.40;52.23;100996.25;5135423;27;19924;-72
2021/07/16 02:20:21;;;;;;;;;;;;;;;16.43;53.67;101001.25;5134731;27;20383;-72
2021/07/16 02:22:48;;;;;;;;;;;;;;;16.44;52.38;101002.09;5134901;27;19928;-72
2021/07/16 02:25:15;;;;;;;;;;;;;;;16.44;52.20;101007.34;5135271;27;19930;-71
2021/07/16 02:27:42;;;;;;;;;;;;;;;16.46;52.37;101008.91;5135227;27;19923;-72
2021/07/16 02:30:10;;;;;;;;;;;;;;;16.35;52.99;101015.94;5134884;27;20381;-71
2021/07/16 02:32:38;;;;;;;;;;;;;;;16.32;53.43;101023.06;5134704;27;19928;-71
2021/07/16 02:35:05;;;;;;;;;;;;;;;16.32;53.02;101017.81;5135117;27;19930;-71
2021/07/16 02:37:32;;;;;;;;;;;;;;;16.31;54.22;101031.06;5134417;27;19923;-71
2021/07/16 02:39:59;;;;;;;;;;;;;;;16.37;52.74;101022.75;5135020;27;19927;-72
2021/07/16 02:42:25;;;;;;;;;;;;;;;16.38;52.62;101013.06;5134369;27;19924;-71
2021/07/16 02:44:52;;;;;;;;;;;;;;;16.47;51.48;101018.47;5134707;27;19946;-71
2021/07/16 02:47:18;;;;;;;;;;;;;;;16.45;50.92;101028.25;5134603;27;19929;-71
2021/07/16 02:49:46;;;;;;;;;;;;;;;16.44;51.96;101031.84;5134463;27;19924;-71
2021/07/16 02:52:13;;;;;;;;;;;;;;;16.48;52.81;101035.06;5134121;27;20385;-71
2021/07/16 02:54:40;;;;;;;;;;;;;;;16.51;51.93;101032.19;5134159;27;19923;-71
2021/07/16 02:57:06;;;;;;;;;;;;;;;16.56;52.05;101032.69;5134296;27;19923;-71
2021/07/16 02:59:33;;;;;;;;;;;;;;;16.61;52.84;101033.16;5134341;27;19923;-71
2021/07/16 03:02:02;;;;;;;;;;;;;;;16.61;52.40;101027.09;5134587;27;19923;-71
2021/07/16 03:04:28;;;;;;;;;;;;;;;16.67;52.34;101039.75;5133944;27;19927;-71
2021/07/16 03:06:56;;;;;;;;;;;;;;;16.74;52.65;101039.16;5134412;27;20293;-72
2021/07/16 03:09:23;;;;;;;;;;;;;;;16.68;52.76;101046.69;5133876;27;20301;-72
2021/07/16 03:11:50;;;;;;;;;;;;;;;16.91;51.64;101047.59;5134375;27;19924;-71
2021/07/16 03:14:16;;;;;;;;;;;;;;;16.99;51.95;101050.47;5133736;27;19931;-71
2021/07/16 03:16:43;;;;;;;;;;;;;;;16.86;52.40;101055.81;5133855;27;20397;-72
2021/07/16 03:19:09;;;;;;;;;;;;;;;16.94;52.58;101044.72;5134274;27;19924;-72
2021/07/16 03:21:36;;;;;;;;;;;;;;;16.90;53.07;101044.13;5133889;27;19934;-72
2021/07/16 03:24:04;;;;;;;;;;;;;;;16.79;51.94;101049.34;5133500;27;20290;-72
2021/07/16 03:26:31;;;;;;;;;;;;;;;16.84;51.89;101049.00;5133789;27;19931;-71
2021/07/16 03:28:58;;;;;;;;;;;;;;;16.88;52.41;101039.94;5133842;27;20441;-71
2021/07/16 03:31:25;;;;;;;;;;;;;;;16.85;52.07;101048.91;5133740;27;19924;-72
2021/07/16 03:33:51;;;;;;;;;;;;;;;16.83;52.52;101047.34;5133704;27;19923;-71
2021/07/16 03:36:18;;;;;;;;;;;;;;;16.80;52.99;101048.41;5133358;27;19934;-72
2021/07/16 03:38:46;;;;;;;;;;;;;;;16.80;52.67;101052.81;5133884;27;19924;-71
2021/07/16 03:41:14;;;;;;;;;;;;;;;17.03;52.36;101066.81;5133916;27;19928;-72
2021/07/16 03:43:41;;;;;;;;;;;;;;;17.05;51.75;101060.47;5133527;27;19924;-72
2021/07/16 03:46:08;;;;;;;;;;;;;;;17.13;52.06;101059.88;5133509;27;19927;-72
2021/07/16 03:48:34;;;;;;;;;;;;;;;16.94;51.32;101065.75;5133288;27;20369;-72
2021/07/16 03:51:01;;;;;;;;;;;;;;;16.93;50.71;101064.91;5133876;27;19923;-71
2021/07/16 03:53:27;;;;;;;;;;;;;;;16.89;51.56;101065.25;5132939;27;20404;-71
2021/07/16 03:55:54;;;;;;;;;;;;;;;16.86;51.94;101068.97;5133751;28;19923;-71
2021/07/16 03:58:22;;;;;;;;;;;;;;;16.96;51.25;101069.09;5133372;28;20028;-71
2021/07/16 04:00:49;;;;;;;;;;;;;;;17.05;51.54;101065.75;5133699;28;19966;-71
2021/07/16 04:03:17;;;;;;;;;;;;;;;17.01;52.02;101072.22;5133352;28;19923;-71
2021/07/16 04:05:44;;;;;;;;;;;;;;;16.95;50.75;101073.53;5133609;28;19923;-71
2021/07/16 04:08:16;;;;;;;;;;;;;;;17.04;51.72;101073.75;5133657;28;19924;-71
2021/07/16 04:10:43;;;;;;;;;;;;;;;17.01;51.81;101077.47;5133349;28;19924;-70
2021/07/16 04:13:10;;;;;;;;;;;;;;;16.94;51.41;101081.50;5133504;28;19924;-71
2021/07/16 04:15:39;;;;;;;;;;;;;;;17.00;51.20;101093.34;5133032;28;19934;-71
2021/07/16 04:18:06;;;;;;;;;;;;;;;16.92;51.33;101093.94;5133346;28;19923;-71
2021/07/16 04:20:33;;;;;;;;;;;;;;;16.87;52.07;101099.53;5133325;28;19924;-72
2021/07/16 04:23:00;;;;;;;;;;;;;;;16.77;52.15;101098.53;5133433;28;19924;-71
2021/07/16 04:25:27;;;;;;;;;;;;;;;16.71;52.19;101089.31;5132836;28;19930;-72
2021/07/16 04:27:56;;;;;;;;;;;;;;;16.74;52.71;101094.34;5133112;28;20369;-71
2021/07/16 04:30:24;;;;;;;;;;;;;;;16.66;52.59;101096.72;5132900;28;19924;-71
2021/07/16 04:32:54;;;;;;;;;;;;;;;16.79;51.91;101103.69;5133291;28;19930;-71
2021/07/16 04:35:20;;;;;;;;;;;;;;;16.90;52.94;101106.34;5134209;27;19930;-73
2021/07/16 04:37:47;;;;;;;;;;;;;;;16.94;52.14;101107.78;5137288;27;19950;-72
2021/07/16 04:40:15;;;;;;;;;;;;;;;16.96;51.87;101100.63;5136924;27;19923;-72
2021/07/16 04:42:42;;;;;;;;;;;;;;;16.97;51.66;101105.75;5137421;27;19924;-72
2021/07/16 04:45:09;;;;;;;;;;;;;;;17.12;52.37;101106.38;5137193;27;19924;-72
2021/07/16 04:47:36;;;;;;;;;;;;;;;17.28;51.26;101108.66;5136863;27;19929;-72
2021/07/16 04:50:04;;;;;;;;;;;;;;;17.31;51.98;101108.41;5137191;27;19924;-72
2021/07/16 04:52:31;;;;;;;;;;;;;;;17.12;51.17;101106.38;5136486;27;19923;-72
2021/07/16 04:54:58;;;;;;;;;;;;;;;16.98;51.29;101119.75;5136742;27;19931;-72
2021/07/16 04:57:24;;;;;;;;;;;;;;;16.82;51.78;101121.84;5136340;27;19923;-72
2021/07/16 04:59:51;;;;;;;;;;;;;;;16.91;52.89;101124.63;5137008;27;20157;-72
2021/07/16 05:02:17;;;;;;;;;;;;;;;17.05;51.89;101117.47;5136304;27;19923;-72
2021/07/16 05:04:44;;;;;;;;;;;;;;;17.33;51.36;101118.81;5136875;27;19923;-72
2021/07/16 05:07:14;;;;;;;;;;;;;;;17.61;50.79;101128.03;5136564;27;20301;-72
2021/07/16 05:09:41;;;;;;;;;;;;;;;17.80;50.58;101130.06;5136202;27;20338;-72
2021/07/16 05:12:08;;;;;;;;;;;;;;;18.12;49.51;101132.75;5136740;27;19931;-72
2021/07/16 05:14:34;;;;;;;;;;;;;;;18.44;49.50;101139.81;5136473;27;19930;-72
2021/07/16 05:17:01;;;;;;;;;;;;;;;18.39;48.99;101134.94;5136144;27;19923;-72
2021/07/16 05:19:28;;;;;;;;;;;;;;;18.38;49.77;101130.63;5136474;27;19931;-73
2021/07/16 05:21:54;;;;;;;;;;;;;;;18.43;48.01;101131.09;5136473;27;19923;-72
2021/07/16 05:24:22;;;;;;;;;;;;;;;18.85;48.04;101130.31;5135985;27;20207;-72
2021/07/16 05:26:49;;;;;;;;;;;;;;;18.55;49.96;101131.88;5136125;27;19934;-72
2021/07/16 05:29:15;;;;;;;;;;;;;;;18.14;49.29;101140.53;5136402;27;19923;-71
2021/07/16 05:31:43;;;;;;;;;;;;;;;18.13;50.52;101134.41;5136013;27;19930;-71
2021/07/16 05:34:10;;;;;;;;;;;;;;;17.76;50.71;101136.50;5136040;27;20460;-71
2021/07/16 05:36:36;;;;;;;;;;;;;;;17.76;50.12;101139.13;5135720;27;19924;-71
2021/07/16 05:39:05;;;;;;;;;;;;;;;17.52;52.04;101134.84;5135781;27;20417;-71
2021/07/16 05:41:33;;;;;;;;;;;;;;;17.30;52.65;101133.06;5135544;27;20300;-71
2021/07/16 05:43:59;;;;;;;;;;;;;;;17.19;51.61;101152.28;5136075;27;19927;-71
2021/07/16 05:46:28;;;;;;;;;;;;;;;17.41;51.98;101142.72;5135256;27;19938;-71
2021/07/16 05:48:55;;;;;;;;;;;;;;;17.74;50.31;101143.69;5136127;27;19923;-71
2021/07/16 05:51:21;;;;;;;;;;;;;;;17.76;50.77;101149.66;5135684;27;19924;-71
2021/07/16 05:53:48;;;;;;;;;;;;;;;17.90;50.52;101149.44;5135437;27;19923;-71
2021/07/16 05:56:14;;;;;;;;;;;;;;;18.07;49.21;101148.09;5136064;27;19930;-71
2021/07/16 05:58:42;;;;;;;;;;;;;;;18.21;48.95;101150.47;5135295;27;19930;-71
2021/07/16 06:01:09;;;;;;;;;;;;;;;18.53;46.90;101151.41;5135795;27;19927;-72
2021/07/16 06:03:36;;;;;;;;;;;;;;;18.44;47.89;101142.47;5135234;27;19930;-70
2021/07/16 06:06:02;;;;;;;;;;;;;;;18.26;49.04;101140.38;5135355;27;20296;-71
2021/07/16 06:08:29;;;;;;;;;;;;;;;18.35;48.84;101146.69;5135581;27;19931;-71
2021/07/16 06:10:56;;;;;;;;;;;;;;;18.22;49.74;101140.75;5135294;27;19923;-71
2021/07/16 06:13:24;;;;;;;;;;;;;;;18.08;50.58;101141.03;5134901;27;19923;-72
2021/07/16 06:15:52;;;;;;;;;;;;;;;17.92;50.18;101149.31;5135328;27;20010;-72
2021/07/16 06:18:19;;;;;;;;;;;;;;;17.51;50.27;101148.13;5134839;27;19923;-70
2021/07/16 06:20:45;;;;;;;;;;;;;;;17.70;50.46;101156.25;5134969;27;20393;-71
2021/07/16 06:23:12;;;;;;;;;;;;;;;17.97;50.01;101166.41;5135014;27;20285;-71
2021/07/16 06:25:39;;;;;;;;;;;;;;;17.92;50.88;101165.09;5134765;27;19953;-71
2021/07/16 06:28:07;;;;;;;;;;;;;;;18.04;49.24;101169.41;5135161;27;19954;-71
2021/07/16 06:30:34;;;;;;;;;;;;;;;18.23;49.43;101174.84;5134961;27;19923;-71
2021/07/16 06:33:02;;;;;;;;;;;;;;;18.19;49.22;101167.34;5135058;27;19927;-70
2021/07/16 06:35:28;;;;;;;;;;;;;;;18.14;48.34;101170.34;5134820;27;19924;-72
2021/07/16 06:37:55;;;;;;;;;;;;;;;18.39;49.03;101166.53;5134606;27;19923;-71
2021/07/16 06:40:22;;;;;;;;;;;;;;;18.52;47.32;101165.53;5134511;27;20290;-71
2021/07/16 06:42:48;;;;;;;;;;;;;;;18.53;47.73;101161.97;5134631;27;20298;-72
2021/07/16 06:45:15;;;;;;;;;;;;;;;18.56;48.22;101167.81;5134624;27;19956;-71
2021/07/16 06:47:41;;;;;;;;;;;;;;;18.55;48.77;101165.28;5134512;27;19924;-71
2021/07/16 06:50:10;;;;;;;;;;;;;;;18.36;48.70;101173.88;5134624;27;19923;-71
2021/07/16 06:52:37;;;;;;;;;;;;;;;18.68;48.11;101179.97;5134312;27;19923;-71
2021/07/16 06:55:04;;;;;;;;;;;;;;;18.64;46.96;101181.19;5134753;27;19923;-71
2021/07/16 06:57:31;;;;;;;;;;;;;;;18.29;47.96;101189.34;5133536;27;19924;-71
2021/07/16 06:59:57;;;;;;;;;;;;;;;18.35;47.20;101193.28;5134785;27;19924;-71
2021/07/16 07:02:24;;;;;;;;;;;;;;;19.25;46.92;101185.81;5134021;27;19924;-71
2021/07/16 07:04:50;;;;;;;;;;;;;;;19.92;43.17;101191.53;5134474;27;19966;-71
2021/07/16 07:07:18;;;;;;;;;;;;;;;20.19;43.49;101201.47;5134325;27;19923;-71
2021/07/16 07:09:45;;;;;;;;;;;;;;;20.38;43.15;101188.28;5134171;27;19924;-71
2021/07/16 07:12:12;;;;;;;;;;;;;;;20.96;42.57;101194.56;5134504;27;19930;-71
2021/07/16 07:14:39;;;;;;;;;;;;;;;20.90;41.47;101200.44;5133917;27;19939;-71
2021/07/16 07:17:06;;;;;;;;;;;;;;;21.13;41.48;101190.38;5134269;27;19923;-71
2021/07/16 07:19:32;;;;;;;;;;;;;;;21.45;41.64;101193.53;5133603;27;20462;-72
2021/07/16 07:21:59;;;;;;;;;;;;;;;20.14;44.39;101201.91;5134374;27;19931;-70
2021/07/16 07:24:27;;;;;;;;;;;;;;;20.44;44.25;101192.19;5133616;27;19927;-71
2021/07/16 07:26:57;;;;;;;;;;;;;;;19.96;45.88;101206.13;5133916;27;19923;-71
2021/07/16 07:29:23;;;;;;;;;;;;;;;21.06;43.50;101217.38;5133753;27;19968;-71
2021/07/16 07:31:50;;;;;;;;;;;;;;;20.20;43.96;101208.44;5133931;27;19927;-71
2021/07/16 07:34:17;;;;;;;;;;;;;;;20.55;43.98;101207.09;5133761;27;19923;-71
2021/07/16 07:36:45;;;;;;;;;;;;;;;21.03;43.07;101214.19;5133684;27;20416;-71
2021/07/16 07:39:11;;;;;;;;;;;;;;;22.56;40.57;101214.72;5133660;27;19924;-71
2021/07/16 07:41:45;;;;;;;;;;;;;;;23.40;37.36;101214.22;5133871;27;19927;-71
2021/07/16 07:44:11;;;;;;;;;;;;;;;22.78;38.87;101216.88;5133880;27;19927;-71
2021/07/16 07:46:38;;;;;;;;;;;;;;;22.58;39.74;101223.31;5133393;27;20390;-71
2021/07/16 07:49:06;;;;;;;;;;;;;;;22.80;38.25;101214.09;5133899;27;19947;-71
2021/07/16 07:51:33;;;;;;;;;;;;;;;23.24;37.04;101230.03;5133580;27;19931;-71
2021/07/16 07:54:00;;;;;;;;;;;;;;;24.13;36.45;101219.03;5133365;27;19923;-71
2021/07/16 07:56:26;;;;;;;;;;;;;;;22.94;37.59;101218.84;5133233;28;20420;-71
2021/07/16 07:58:55;;;;;;;;;;;;;;;23.03;37.18;101225.06;5133678;28;19924;-71
2021/07/16 08:01:21;;;;;;;;;;;;;;;23.93;36.96;101230.09;5133371;28;19933;-71
2021/07/16 08:03:48;;;;;;;;;;;;;;;23.27;37.15;101227.06;5133548;28;20388;-70
2021/07/16 08:06:14;;;;;;;;;;;;;;;22.52;38.52;101226.59;5133870;28;19923;-70
2021/07/16 08:08:41;;;;;;;;;;;;;;;22.96;39.22;101237.25;5133503;27;19934;-70
2021/07/16 08:11:07;;;;;;;;;;;;;;;23.07;37.68;101242.38;5137960;27;19923;-69
2021/07/16 08:13:34;;;;;;;;;;;;;;;23.32;37.58;101242.53;5138027;27;19933;-70
2021/07/16 08:16:02;;;;;;;;;;;;;;;22.05;39.81;101237.31;5137688;27;19923;-69
2021/07/16 08:18:29;;;;;;;;;;;;;;;21.93;39.96;101245.44;5137175;27;20289;-69
2021/07/16 08:20:55;;;;;;;;;;;;;;;22.69;38.83;101254.94;5137281;27;20373;-69
2021/07/16 08:23:22;;;;;;;;;;;;;;;21.48;41.49;101248.84;5137212;27;19928;-70
2021/07/16 08:25:49;;;;;;;;;;;;;;;22.87;37.93;101254.09;5137672;27;19927;-70
2021/07/16 08:28:15;;;;;;;;;;;;;;;24.61;34.69;101245.09;5137403;27;19923;-70
2021/07/16 08:30:42;;;;;;;;;;;;;;;23.47;37.20;101262.22;5137540;27;19927;-70
2021/07/16 08:33:10;;;;;;;;;;;;;;;23.66;36.95;101250.53;5137475;27;19924;-72
2021/07/16 08:35:36;;;;;;;;;;;;;;;24.70;35.58;101249.44;5136871;27;20463;-71
2021/07/16 08:38:05;;;;;;;;;;;;;;;25.30;33.08;101253.59;5137542;27;19927;-70
2021/07/16 08:40:32;;;;;;;;;;;;;;;25.79;33.45;101248.16;5136905;27;19927;-70
2021/07/16 08:42:59;;;;;;;;;;;;;;;24.67;34.12;101242.63;5137058;27;19923;-70
2021/07/16 08:45:27;;;;;;;;;;;;;;;24.94;34.34;101251.25;5137012;27;19924;-71
2021/07/16 08:47:54;;;;;;;;;;;;;;;25.61;33.64;101257.22;5137324;27;19924;-70
2021/07/16 08:50:23;;;;;;;;;;;;;;;25.40;33.66;101255.06;5136637;27;19930;-70
2021/07/16 08:52:50;;;;;;;;;;;;;;;24.97;34.57;101254.44;5136712;27;19928;-69
2021/07/16 08:55:18;;;;;;;;;;;;;;;24.56;36.28;101256.25;5136837;27;19923;-71
2021/07/16 08:57:45;;;;;;;;;;;;;;;25.85;32.67;101255.50;5137033;27;19996;-70
2021/07/16 09:00:13;;;;;;;;;;;;;;;25.68;33.04;101256.53;5136611;27;19924;-70
2021/07/16 09:02:50;;;;;;;;;;;;;;;25.44;32.11;101257.44;5136469;27;20396;-70
2021/07/16 09:05:16;;;;;;;;;;;;;;;26.00;33.09;101261.78;5136879;27;19930;-69
2021/07/16 09:07:48;;;;;;;;;;;;;;;25.24;34.00;101271.09;5136450;27;19923;-70
2021/07/16 09:10:18;;;;;;;;;;;;;;;26.80;31.22;101271.34;5137025;27;19983;-70
2021/07/16 09:12:45;;;;;;;;;;;;;;;26.55;32.20;101277.84;5136821;27;20077;-70
2021/07/16 09:15:12;;;;;;;;;;;;;;;25.51;33.41;101277.03;5136727;27;19924;-69
2021/07/16 09:17:42;;;;;;;;;;;;;;;25.93;33.11;101279.44;5136483;27;19923;-69
2021/07/16 09:20:10;;;;;;;;;;;;;;;25.30;34.70;101277.56;5136080;27;19972;-70
2021/07/16 09:22:37;;;;;;;;;;;;;;;25.96;32.81;101279.09;5135872;27;19923;-70
2021/07/16 09:25:06;;;;;;;;;;;;;;;24.77;34.92;101277.88;5136568;27;19946;-69
2021/07/16 09:27:34;;;;;;;;;;;;;;;25.51;33.76;101288.53;5135983;27;19927;-70
2021/07/16 09:30:24;;;;;;;;;;;;;;;27.25;31.28;101282.97;5136177;27;19924;-69
2021/07/16 09:32:52;;;;;;;;;;;;;;;24.73;34.09;101283.69;5110615;27;20293;-72
2021/07/16 09:35:19;;;;;;;;;;;;;;;26.78;31.82;101277.84;5135883;27;20379;-72
2021/07/16 09:37:50;;;;;;;;;;;;;;;26.41;32.46;101288.25;5136434;27;19923;-72
2021/07/16 09:40:22;;;;;;;;;;;;;;;27.41;31.44;101283.84;5135985;27;19931;-72
2021/07/16 09:42:49;;;;;;;;;;;;;;;27.86;29.78;101293.56;5136079;27;19927;-71
2021/07/16 09:45:15;;;;;;;;;;;;;;;26.62;31.49;101284.97;5136261;27;19924;-72
2021/07/16 09:47:42;;;;;;;;;;;;;;;27.35;29.72;101301.44;5135468;27;20339;-72
2021/07/16 09:50:11;;;;;;;;;;;;;;;27.39;30.43;101289.38;5135979;27;19931;-71
2021/07/16 09:52:37;;;;;;;;;;;;;;;27.83;31.42;101303.81;5135278;27;20014;-69
2021/07/16 09:55:08;;;;;;;;;;;;;;;27.94;29.16;101304.16;5135991;27;19923;-69
2021/07/16 09:57:41;;;;;;;;;;;;;;;26.97;30.76;101296.03;5135594;27;19923;-72
2021/07/16 10:00:12;;;;;;;;;;;;;;;27.73;29.58;101296.03;5135684;27;19923;-71
2021/07/16 10:02:39;;;;;;;;;;;;;;;26.46;32.38;101301.88;5135266;27;20389;-72
2021/07/16 10:05:07;;;;;;;;;;;;;;;26.80;31.80;101306.03;5135547;27;19952;-72
2021/07/16 10:07:34;;;;;;;;;;;;;;;26.70;31.95;101308.94;5135313;27;20381;-72
2021/07/16 10:10:01;;;;;;;;;;;;;;;26.35;31.85;101307.59;5135333;27;19924;-71
2021/07/16 10:12:28;;;;;;;;;;;;;;;28.02;29.90;101305.91;5135344;27;19930;-69
2021/07/16 10:14:57;;;;;;;;;;;;;;;27.45;30.92;101309.19;5135364;27;19923;-69
2021/07/16 10:17:24;;;;;;;;;;;;;;;26.34;31.58;101313.13;5135231;27;19923;-70
2021/07/16 10:19:51;;;;;;;;;;;;;;;26.54;32.65;101302.84;5135158;27;19929;-71
2021/07/16 10:22:18;;;;;;;;;;;;;;;27.37;31.39;101302.09;5135115;27;19923;-71
2021/07/16 10:24:45;;;;;;;;;;;;;;;27.93;30.63;101315.06;5135122;27;19930;-71
2021/07/16 10:27:13;;;;;;;;;;;;;;;27.32;31.49;101301.81;5135255;27;19947;-71
2021/07/16 10:29:42;;;;;;;;;;;;;;;26.35;32.42;101296.09;5135121;27;19923;-72
2021/07/16 10:32:10;;;;;;;;;;;;;;;26.70;31.63;101292.91;5134312;27;20453;-71
2021/07/16 10:34:38;;;;;;;;;;;;;;;24.69;36.43;101303.66;5134622;27;19954;-71
2021/07/16 10:37:06;;;;;;;;;;;;;;;26.20;32.01;101299.53;5134795;27;19967;-71
2021/07/16 10:39:44;;;;;;;;;;;;;;;27.73;31.91;101304.88;5134474;27;20457;-71
2021/07/16 10:42:29;;;;;;;;;;;;;;;29.43;28.81;101306.38;5134769;27;20285;-71
2021/07/16 10:44:58;;;;;;;;;;;;;;;27.09;30.63;101310.63;5134765;27;19978;-72
2021/07/16 10:47:35;;;;;;;;;;;;;;;25.92;31.70;101304.47;5134593;27;19923;-72
2021/07/16 10:50:02;;;;;;;;;;;;;;;27.71;30.68;101320.28;5134883;27;19923;-72
2021/07/16 10:52:41;;;;;;;;;;;;;;;27.73;30.24;101318.25;5134105;27;19931;-71
2021/07/16 10:55:08;;;;;;;;;;;;;;;28.52;29.43;101306.16;5134439;27;20381;-71
2021/07/16 10:57:39;;;;;;;;;;;;;;;28.25;29.79;101308.47;5134188;27;20356;-71
2021/07/16 11:00:06;;;;;;;;;;;;;;;28.90;28.36;101316.59;5134345;27;19972;-72
2021/07/16 11:02:44;;;;;;;;;;;;;;;29.80;26.86;101312.41;5134046;27;19928;-71
2021/07/16 11:05:29;;;;;;;;;;;;;;;26.48;32.72;101315.84;5134635;27;19923;-70
2021/07/16 11:07:56;;;;;;;;;;;;;;;28.97;28.41;101306.78;5134625;27;19923;-71
2021/07/16 11:10:41;;;;;;;;;;;;;;;25.82;32.31;101314.47;5134259;27;19930;-73
2021/07/16 11:13:31;;;;;;;;;;;;;;;27.37;29.70;101310.09;5134331;27;19924;-71
2021/07/16 11:15:58;;;;;;;;;;;;;;;27.69;28.50;101318.78;5108680;27;19923;-71
2021/07/16 11:18:29;;;;;;;;;;;;;;;27.77;29.49;101318.69;5133862;27;19930;-71
2021/07/16 11:20:57;;;;;;;;;;;;;;;27.72;29.35;101318.41;5134256;27;19931;-72
2021/07/16 11:23:49;;;;;;;;;;;;;;;28.69;29.14;101310.22;5133723;27;19927;-71
2021/07/16 11:26:16;;;;;;;;;;;;;;;28.88;27.91;101298.88;5134153;27;19924;-71
2021/07/16 11:28:43;;;;;;;;;;;;;;;28.49;28.16;101302.00;5133578;27;20342;-71
2021/07/16 11:31:09;;;;;;;;;;;;;;;28.46;28.25;101301.53;5134435;27;19930;-71
2021/07/16 11:33:37;;;;;;;;;;;;;;;28.55;27.21;101295.88;5133817;27;19923;-70
2021/07/16 11:36:04;;;;;;;;;;;;;;;28.78;27.56;101298.38;5134164;27;19923;-70
2021/07/16 11:38:31;;;;;;;;;;;;;;;28.93;28.41;101302.81;5133876;27;20020;-70
2021/07/16 11:41:08;;;;;;;;;;;;;;;29.99;26.45;101300.13;5133785;27;19930;-69
2021/07/16 11:43:34;;;;;;;;;;;;;;;29.80;27.76;101299.00;5133391;27;19923;-71
2021/07/16 11:46:01;;;;;;;;;;;;;;;29.09;28.00;101295.38;5133923;27;19924;-71
2021/07/16 11:48:27;;;;;;;;;;;;;;;30.06;25.88;101303.69;5133229;27;19943;-71
2021/07/16 11:50:55;;;;;;;;;;;;;;;29.38;27.20;101311.47;5133489;27;19923;-71
2021/07/16 11:53:27;;;;;;;;;;;;;;;30.26;26.73;101312.63;5132961;27;19929;-72
2021/07/16 11:55:55;;;;;;;;;;;;;;;28.94;27.41;101299.16;5132658;27;20508;-71
2021/07/16 11:58:22;;;;;;;;;;;;;;;28.23;27.48;101314.03;5133376;27;19923;-72
2021/07/16 12:00:48;;;;;;;;;;;;;;;29.67;26.43;101305.09;5133748;28;19923;-70
2021/07/16 12:03:17;;;;;;;;;;;;;;;28.74;28.98;101305.13;5133541;28;20312;-71
2021/07/16 12:05:48;;;;;;;;;;;;;;;28.39;28.82;101304.94;5133466;28;19969;-71
2021/07/16 12:08:19;;;;;;;;;;;;;;;26.30;31.25;101296.63;5133780;28;19931;-71
2021/07/16 12:10:45;;;;;;;;;;;;;;;27.33;30.45;101300.78;5133675;28;19983;-72
2021/07/16 12:13:12;;;;;;;;;;;;;;;26.56;31.14;101300.84;5141907;28;19923;-71
2021/07/16 12:15:39;;;;;;;;;;;;;;;25.02;33.16;101303.66;5149400;28;19924;-71
2021/07/16 12:18:08;;;;;;;;;;;;;;;27.54;30.40;101310.75;5149636;28;19930;-71
2021/07/16 12:20:35;;;;;;;;;;;;;;;26.52;31.79;101307.53;5151247;28;19908;-71
2021/07/16 12:23:07;;;;;;;;;;;;;;;26.85;29.58;101308.19;5138387;28;19930;-72
2021/07/16 12:25:37;;;;;;;;;;;;;;;28.21;28.71;101301.84;5133417;28;19931;-71
2021/07/16 12:28:05;;;;;;;;;;;;;;;28.28;28.77;101300.06;5133793;28;19927;-72
2021/07/16 12:30:31;;;;;;;;;;;;;;;28.02;28.91;101312.09;5133418;28;19924;-71
2021/07/16 12:33:01;;;;;;;;;;;;;;;26.84;30.47;101315.31;5133332;28;20389;-71
2021/07/16 12:35:28;;;;;;;;;;;;;;;25.40;33.25;101313.69;5132923;28;20377;-70
2021/07/16 12:37:59;;;;;;;;;;;;;;;23.89;35.27;101319.91;5133742;28;19930;-71